sensor_id;sensor_type;location;lat;lon;timestamp;P1;durP1;ratioP1;P2;durP2;ratioP2
44110;SDS011;29774;52.664;5.074;2023-04-23T00:00:50;51.00;;;31.33;;
44110;SDS011;29774;52.664;5.074;2023-04-23T00:03:17;42.85;;;27.55;;
44110;SDS011;29774;52.664;5.074;2023-04-23T00:05:44;51.50;;;32.40;;
44110;SDS011;29774;52.664;5.074;2023-04-23T00:08:11;54.33;;;33.03;;
44110;SDS011;29774;52.664;5.074;2023-04-23T00:10:39;51.08;;;31.67;;
44110;SDS011;29774;52.664;5.074;2023-04-23T00:13:05;48.45;;;29.50;;
44110;SDS011;29774;52.664;5.074;2023-04-23T00:15:30;47.30;;;29.13;;
44110;SDS011;29774;52.664;5.074;2023-04-23T00:17:56;49.05;;;32.28;;
44110;SDS011;29774;52.664;5.074;2023-04-23T00:20:22;50.83;;;30.50;;
44110;SDS011;29774;52.664;5.074;2023-04-23T00:22:47;52.80;;;32.65;;
44110;SDS011;29774;52.664;5.074;2023-04-23T00:25:13;52.55;;;32.38;;
44110;SDS011;29774;52.664;5.074;2023-04-23T00:27:39;51.15;;;33.08;;
44110;SDS011;29774;52.664;5.074;2023-04-23T00:30:04;51.78;;;32.10;;
44110;SDS011;29774;52.664;5.074;2023-04-23T00:32:31;51.35;;;33.05;;
44110;SDS011;29774;52.664;5.074;2023-04-23T00:34:56;51.40;;;32.30;;
44110;SDS011;29774;52.664;5.074;2023-04-23T00:37:22;46.88;;;31.20;;
44110;SDS011;29774;52.664;5.074;2023-04-23T00:39:47;48.15;;;32.65;;
44110;SDS011;29774;52.664;5.074;2023-04-23T00:42:13;48.95;;;32.15;;
44110;SDS011;29774;52.664;5.074;2023-04-23T00:44:41;49.78;;;32.75;;
44110;SDS011;29774;52.664;5.074;2023-04-23T00:47:07;49.55;;;33.03;;
44110;SDS011;29774;52.664;5.074;2023-04-23T00:49:34;48.13;;;31.98;;
44110;SDS011;29774;52.664;5.074;2023-04-23T00:52:00;52.08;;;32.33;;
44110;SDS011;29774;52.664;5.074;2023-04-23T00:54:26;50.40;;;31.63;;
44110;SDS011;29774;52.664;5.074;2023-04-23T00:56:52;54.53;;;34.22;;
44110;SDS011;29774;52.664;5.074;2023-04-23T00:59:19;50.60;;;31.92;;
44110;SDS011;29774;52.664;5.074;2023-04-23T01:01:45;51.40;;;32.65;;
44110;SDS011;29774;52.664;5.074;2023-04-23T01:04:12;51.67;;;33.45;;
44110;SDS011;29774;52.664;5.074;2023-04-23T01:06:39;51.63;;;32.83;;
44110;SDS011;29774;52.664;5.074;2023-04-23T01:09:06;48.83;;;31.55;;
44110;SDS011;29774;52.664;5.074;2023-04-23T01:11:34;54.50;;;34.78;;
44110;SDS011;29774;52.664;5.074;2023-04-23T01:14:03;54.90;;;34.40;;
44110;SDS011;29774;52.664;5.074;2023-04-23T01:16:29;50.60;;;33.35;;
44110;SDS011;29774;52.664;5.074;2023-04-23T01:18:54;52.03;;;33.75;;
44110;SDS011;29774;52.664;5.074;2023-04-23T01:21:20;52.53;;;35.53;;
44110;SDS011;29774;52.664;5.074;2023-04-23T01:23:47;56.92;;;35.60;;
44110;SDS011;29774;52.664;5.074;2023-04-23T01:26:13;54.83;;;35.63;;
44110;SDS011;29774;52.664;5.074;2023-04-23T01:28:40;55.90;;;34.33;;
44110;SDS011;29774;52.664;5.074;2023-04-23T01:31:07;51.20;;;33.08;;
44110;SDS011;29774;52.664;5.074;2023-04-23T01:33:33;57.13;;;35.25;;
44110;SDS011;29774;52.664;5.074;2023-04-23T01:36:00;52.45;;;34.10;;
44110;SDS011;29774;52.664;5.074;2023-04-23T01:38:27;56.90;;;35.85;;
44110;SDS011;29774;52.664;5.074;2023-04-23T01:40:55;50.15;;;34.13;;
44110;SDS011;29774;52.664;5.074;2023-04-23T01:43:21;55.97;;;35.65;;
44110;SDS011;29774;52.664;5.074;2023-04-23T01:45:47;53.83;;;33.78;;
44110;SDS011;29774;52.664;5.074;2023-04-23T01:48:12;52.40;;;34.10;;
44110;SDS011;29774;52.664;5.074;2023-04-23T01:50:38;50.47;;;33.60;;
44110;SDS011;29774;52.664;5.074;2023-04-23T01:53:04;55.28;;;34.97;;
44110;SDS011;29774;52.664;5.074;2023-04-23T01:55:30;52.05;;;34.30;;
44110;SDS011;29774;52.664;5.074;2023-04-23T01:57:58;53.53;;;33.45;;
44110;SDS011;29774;52.664;5.074;2023-04-23T02:00:23;50.72;;;33.97;;
44110;SDS011;29774;52.664;5.074;2023-04-23T02:02:49;50.05;;;32.95;;
44110;SDS011;29774;52.664;5.074;2023-04-23T02:05:18;50.30;;;32.95;;
44110;SDS011;29774;52.664;5.074;2023-04-23T02:07:44;52.35;;;33.90;;
44110;SDS011;29774;52.664;5.074;2023-04-23T02:10:11;47.45;;;30.83;;
44110;SDS011;29774;52.664;5.074;2023-04-23T02:12:37;48.65;;;32.08;;
44110;SDS011;29774;52.664;5.074;2023-04-23T02:15:04;45.05;;;31.13;;
44110;SDS011;29774;52.664;5.074;2023-04-23T02:17:31;47.10;;;30.05;;
44110;SDS011;29774;52.664;5.074;2023-04-23T02:19:57;48.70;;;30.45;;
44110;SDS011;29774;52.664;5.074;2023-04-23T02:22:23;47.15;;;32.20;;
44110;SDS011;29774;52.664;5.074;2023-04-23T02:24:50;44.67;;;28.98;;
44110;SDS011;29774;52.664;5.074;2023-04-23T02:27:17;47.85;;;30.20;;
44110;SDS011;29774;52.664;5.074;2023-04-23T02:29:43;46.45;;;29.75;;
44110;SDS011;29774;52.664;5.074;2023-04-23T02:32:09;42.95;;;28.55;;
44110;SDS011;29774;52.664;5.074;2023-04-23T02:34:35;44.83;;;29.25;;
44110;SDS011;29774;52.664;5.074;2023-04-23T02:37:00;42.28;;;29.38;;
44110;SDS011;29774;52.664;5.074;2023-04-23T02:39:26;45.80;;;30.42;;
44110;SDS011;29774;52.664;5.074;2023-04-23T02:41:52;42.58;;;28.15;;
44110;SDS011;29774;52.664;5.074;2023-04-23T02:44:17;45.38;;;30.58;;
44110;SDS011;29774;52.664;5.074;2023-04-23T02:46:43;41.95;;;28.30;;
44110;SDS011;29774;52.664;5.074;2023-04-23T02:49:08;44.03;;;29.95;;
44110;SDS011;29774;52.664;5.074;2023-04-23T02:51:34;43.13;;;30.25;;
44110;SDS011;29774;52.664;5.074;2023-04-23T02:54:00;46.63;;;31.30;;
44110;SDS011;29774;52.664;5.074;2023-04-23T02:56:27;46.10;;;29.75;;
44110;SDS011;29774;52.664;5.074;2023-04-23T02:58:53;47.42;;;30.48;;
44110;SDS011;29774;52.664;5.074;2023-04-23T03:01:19;42.85;;;28.98;;
44110;SDS011;29774;52.664;5.074;2023-04-23T03:03:44;47.78;;;29.33;;
44110;SDS011;29774;52.664;5.074;2023-04-23T03:06:10;49.22;;;31.65;;
44110;SDS011;29774;52.664;5.074;2023-04-23T03:08:36;42.35;;;28.38;;
44110;SDS011;29774;52.664;5.074;2023-04-23T03:11:01;46.85;;;28.50;;
44110;SDS011;29774;52.664;5.074;2023-04-23T03:13:27;42.67;;;28.42;;
44110;SDS011;29774;52.664;5.074;2023-04-23T03:15:54;43.25;;;28.63;;
44110;SDS011;29774;52.664;5.074;2023-04-23T03:18:20;42.30;;;27.63;;
44110;SDS011;29774;52.664;5.074;2023-04-23T03:20:46;42.78;;;28.67;;
44110;SDS011;29774;52.664;5.074;2023-04-23T03:23:11;45.33;;;28.42;;
44110;SDS011;29774;52.664;5.074;2023-04-23T03:25:37;41.58;;;27.33;;
44110;SDS011;29774;52.664;5.074;2023-04-23T03:28:03;44.15;;;28.70;;
44110;SDS011;29774;52.664;5.074;2023-04-23T03:30:29;40.83;;;27.92;;
44110;SDS011;29774;52.664;5.074;2023-04-23T03:32:55;42.33;;;27.48;;
44110;SDS011;29774;52.664;5.074;2023-04-23T03:35:24;44.20;;;27.60;;
44110;SDS011;29774;52.664;5.074;2023-04-23T03:37:50;41.75;;;28.38;;
44110;SDS011;29774;52.664;5.074;2023-04-23T03:40:16;44.03;;;27.25;;
44110;SDS011;29774;52.664;5.074;2023-04-23T03:42:43;39.35;;;25.30;;
44110;SDS011;29774;52.664;5.074;2023-04-23T03:45:08;38.85;;;26.65;;
44110;SDS011;29774;52.664;5.074;2023-04-23T03:47:35;36.30;;;25.35;;
44110;SDS011;29774;52.664;5.074;2023-04-23T03:50:01;39.92;;;25.92;;
44110;SDS011;29774;52.664;5.074;2023-04-23T03:52:26;42.70;;;27.52;;
44110;SDS011;29774;52.664;5.074;2023-04-23T03:54:52;38.67;;;26.02;;
44110;SDS011;29774;52.664;5.074;2023-04-23T03:57:19;40.45;;;27.08;;
44110;SDS011;29774;52.664;5.074;2023-04-23T03:59:45;32.72;;;23.65;;
44110;SDS011;29774;52.664;5.074;2023-04-23T04:02:11;37.28;;;23.45;;
44110;SDS011;29774;52.664;5.074;2023-04-23T04:04:36;35.80;;;24.52;;
44110;SDS011;29774;52.664;5.074;2023-04-23T04:07:02;36.42;;;25.38;;
44110;SDS011;29774;52.664;5.074;2023-04-23T04:09:28;35.17;;;25.05;;
44110;SDS011;29774;52.664;5.074;2023-04-23T04:11:54;35.67;;;24.13;;
44110;SDS011;29774;52.664;5.074;2023-04-23T04:14:20;35.65;;;24.10;;
44110;SDS011;29774;52.664;5.074;2023-04-23T04:16:46;34.17;;;22.77;;
44110;SDS011;29774;52.664;5.074;2023-04-23T04:19:12;35.58;;;23.27;;
44110;SDS011;29774;52.664;5.074;2023-04-23T04:21:38;37.35;;;23.58;;
44110;SDS011;29774;52.664;5.074;2023-04-23T04:24:03;36.22;;;22.40;;
44110;SDS011;29774;52.664;5.074;2023-04-23T04:26:29;32.08;;;21.25;;
44110;SDS011;29774;52.664;5.074;2023-04-23T04:28:58;34.80;;;22.58;;
44110;SDS011;29774;52.664;5.074;2023-04-23T04:31:25;32.83;;;22.27;;
44110;SDS011;29774;52.664;5.074;2023-04-23T04:33:52;35.70;;;23.00;;
44110;SDS011;29774;52.664;5.074;2023-04-23T04:36:19;31.42;;;20.73;;
44110;SDS011;29774;52.664;5.074;2023-04-23T04:38:45;33.10;;;21.40;;
44110;SDS011;29774;52.664;5.074;2023-04-23T04:41:11;28.50;;;20.45;;
44110;SDS011;29774;52.664;5.074;2023-04-23T04:43:37;34.05;;;21.58;;
44110;SDS011;29774;52.664;5.074;2023-04-23T04:46:04;31.02;;;22.13;;
44110;SDS011;29774;52.664;5.074;2023-04-23T04:48:29;33.50;;;22.20;;
44110;SDS011;29774;52.664;5.074;2023-04-23T04:50:55;30.23;;;20.92;;
44110;SDS011;29774;52.664;5.074;2023-04-23T04:53:21;34.05;;;22.17;;
44110;SDS011;29774;52.664;5.074;2023-04-23T04:55:47;30.80;;;21.35;;
44110;SDS011;29774;52.664;5.074;2023-04-23T04:58:13;29.13;;;20.33;;
44110;SDS011;29774;52.664;5.074;2023-04-23T05:00:38;30.58;;;21.85;;
44110;SDS011;29774;52.664;5.074;2023-04-23T05:03:04;32.00;;;22.60;;
44110;SDS011;29774;52.664;5.074;2023-04-23T05:05:31;32.30;;;22.00;;
44110;SDS011;29774;52.664;5.074;2023-04-23T05:07:57;32.75;;;21.13;;
44110;SDS011;29774;52.664;5.074;2023-04-23T05:10:29;31.02;;;21.65;;
44110;SDS011;29774;52.664;5.074;2023-04-23T05:12:57;29.98;;;20.65;;
44110;SDS011;29774;52.664;5.074;2023-04-23T05:15:24;28.67;;;19.70;;
44110;SDS011;29774;52.664;5.074;2023-04-23T05:17:50;30.65;;;21.48;;
44110;SDS011;29774;52.664;5.074;2023-04-23T05:20:17;30.63;;;20.58;;
44110;SDS011;29774;52.664;5.074;2023-04-23T05:22:43;28.10;;;18.60;;
44110;SDS011;29774;52.664;5.074;2023-04-23T05:25:10;29.90;;;20.58;;
44110;SDS011;29774;52.664;5.074;2023-04-23T05:27:36;30.38;;;20.17;;
44110;SDS011;29774;52.664;5.074;2023-04-23T05:30:03;26.90;;;19.13;;
44110;SDS011;29774;52.664;5.074;2023-04-23T05:32:30;30.52;;;21.40;;
44110;SDS011;29774;52.664;5.074;2023-04-23T05:34:56;28.05;;;20.30;;
44110;SDS011;29774;52.664;5.074;2023-04-23T05:37:23;27.77;;;19.52;;
44110;SDS011;29774;52.664;5.074;2023-04-23T05:39:49;27.40;;;20.58;;
44110;SDS011;29774;52.664;5.074;2023-04-23T05:42:15;28.67;;;20.13;;
44110;SDS011;29774;52.664;5.074;2023-04-23T05:44:40;28.20;;;19.77;;
44110;SDS011;29774;52.664;5.074;2023-04-23T05:47:06;28.77;;;20.33;;
44110;SDS011;29774;52.664;5.074;2023-04-23T05:49:33;24.83;;;18.48;;
44110;SDS011;29774;52.664;5.074;2023-04-23T05:51:59;26.60;;;19.00;;
44110;SDS011;29774;52.664;5.074;2023-04-23T05:54:27;25.65;;;19.83;;
44110;SDS011;29774;52.664;5.074;2023-04-23T05:56:53;26.65;;;19.20;;
44110;SDS011;29774;52.664;5.074;2023-04-23T05:59:18;23.88;;;18.75;;
44110;SDS011;29774;52.664;5.074;2023-04-23T06:01:44;25.17;;;18.15;;
44110;SDS011;29774;52.664;5.074;2023-04-23T06:04:11;25.80;;;18.45;;
44110;SDS011;29774;52.664;5.074;2023-04-23T06:06:37;23.38;;;17.42;;
44110;SDS011;29774;52.664;5.074;2023-04-23T06:09:03;23.58;;;17.67;;
44110;SDS011;29774;52.664;5.074;2023-04-23T06:11:29;26.42;;;18.73;;
44110;SDS011;29774;52.664;5.074;2023-04-23T06:13:56;23.92;;;18.40;;
44110;SDS011;29774;52.664;5.074;2023-04-23T06:16:22;25.67;;;19.48;;
44110;SDS011;29774;52.664;5.074;2023-04-23T06:18:48;27.35;;;18.50;;
44110;SDS011;29774;52.664;5.074;2023-04-23T06:21:14;25.42;;;18.88;;
44110;SDS011;29774;52.664;5.074;2023-04-23T06:23:40;23.67;;;17.40;;
44110;SDS011;29774;52.664;5.074;2023-04-23T06:26:05;19.85;;;14.35;;
44110;SDS011;29774;52.664;5.074;2023-04-23T06:28:31;18.02;;;14.07;;
44110;SDS011;29774;52.664;5.074;2023-04-23T06:30:57;26.85;;;19.75;;
44110;SDS011;29774;52.664;5.074;2023-04-23T06:33:22;24.15;;;17.30;;
44110;SDS011;29774;52.664;5.074;2023-04-23T06:35:48;26.02;;;19.52;;
44110;SDS011;29774;52.664;5.074;2023-04-23T06:38:13;24.95;;;19.17;;
44110;SDS011;29774;52.664;5.074;2023-04-23T06:40:40;18.98;;;13.38;;
44110;SDS011;29774;52.664;5.074;2023-04-23T06:43:05;23.92;;;17.48;;
44110;SDS011;29774;52.664;5.074;2023-04-23T06:45:32;21.75;;;16.20;;
44110;SDS011;29774;52.664;5.074;2023-04-23T06:47:59;19.23;;;14.77;;
44110;SDS011;29774;52.664;5.074;2023-04-23T06:50:24;19.60;;;14.35;;
44110;SDS011;29774;52.664;5.074;2023-04-23T06:52:51;20.50;;;16.35;;
44110;SDS011;29774;52.664;5.074;2023-04-23T06:55:17;23.30;;;16.83;;
44110;SDS011;29774;52.664;5.074;2023-04-23T06:57:43;19.55;;;13.93;;
44110;SDS011;29774;52.664;5.074;2023-04-23T07:00:09;20.08;;;16.23;;
44110;SDS011;29774;52.664;5.074;2023-04-23T07:02:35;17.10;;;13.18;;
44110;SDS011;29774;52.664;5.074;2023-04-23T07:05:01;14.85;;;12.35;;
44110;SDS011;29774;52.664;5.074;2023-04-23T07:07:27;17.92;;;13.07;;
44110;SDS011;29774;52.664;5.074;2023-04-23T07:09:53;14.40;;;11.40;;
44110;SDS011;29774;52.664;5.074;2023-04-23T07:12:19;20.08;;;12.85;;
44110;SDS011;29774;52.664;5.074;2023-04-23T07:14:44;15.10;;;11.57;;
44110;SDS011;29774;52.664;5.074;2023-04-23T07:17:10;15.85;;;13.10;;
44110;SDS011;29774;52.664;5.074;2023-04-23T07:19:36;20.52;;;14.77;;
44110;SDS011;29774;52.664;5.074;2023-04-23T07:22:02;16.88;;;12.30;;
44110;SDS011;29774;52.664;5.074;2023-04-23T07:24:27;16.80;;;12.80;;
44110;SDS011;29774;52.664;5.074;2023-04-23T07:26:53;18.90;;;13.05;;
44110;SDS011;29774;52.664;5.074;2023-04-23T07:29:19;13.60;;;9.48;;
44110;SDS011;29774;52.664;5.074;2023-04-23T07:31:45;16.00;;;12.40;;
44110;SDS011;29774;52.664;5.074;2023-04-23T07:34:12;15.10;;;12.15;;
44110;SDS011;29774;52.664;5.074;2023-04-23T07:36:37;11.40;;;9.38;;
44110;SDS011;29774;52.664;5.074;2023-04-23T07:39:03;19.15;;;13.00;;
44110;SDS011;29774;52.664;5.074;2023-04-23T07:41:29;13.75;;;11.00;;
44110;SDS011;29774;52.664;5.074;2023-04-23T07:43:55;13.13;;;10.18;;
44110;SDS011;29774;52.664;5.074;2023-04-23T07:46:21;11.00;;;9.30;;
44110;SDS011;29774;52.664;5.074;2023-04-23T07:48:47;10.85;;;8.25;;
44110;SDS011;29774;52.664;5.074;2023-04-23T07:51:12;12.20;;;9.55;;
44110;SDS011;29774;52.664;5.074;2023-04-23T07:53:38;11.73;;;9.35;;
44110;SDS011;29774;52.664;5.074;2023-04-23T07:56:04;14.10;;;11.07;;
44110;SDS011;29774;52.664;5.074;2023-04-23T07:58:29;16.05;;;12.25;;
44110;SDS011;29774;52.664;5.074;2023-04-23T08:00:57;14.02;;;10.45;;
44110;SDS011;29774;52.664;5.074;2023-04-23T08:03:22;15.23;;;11.95;;
44110;SDS011;29774;52.664;5.074;2023-04-23T08:05:48;15.75;;;10.05;;
44110;SDS011;29774;52.664;5.074;2023-04-23T08:08:14;17.05;;;12.10;;
44110;SDS011;29774;52.664;5.074;2023-04-23T08:10:39;16.00;;;11.68;;
44110;SDS011;29774;52.664;5.074;2023-04-23T08:13:05;18.05;;;11.68;;
44110;SDS011;29774;52.664;5.074;2023-04-23T08:15:31;14.02;;;10.63;;
44110;SDS011;29774;52.664;5.074;2023-04-23T08:17:56;14.77;;;9.90;;
44110;SDS011;29774;52.664;5.074;2023-04-23T08:20:22;10.68;;;6.68;;
44110;SDS011;29774;52.664;5.074;2023-04-23T08:22:47;8.05;;;6.40;;
44110;SDS011;29774;52.664;5.074;2023-04-23T08:25:14;8.35;;;6.13;;
44110;SDS011;29774;52.664;5.074;2023-04-23T08:27:40;10.38;;;7.72;;
44110;SDS011;29774;52.664;5.074;2023-04-23T08:30:06;9.40;;;7.10;;
44110;SDS011;29774;52.664;5.074;2023-04-23T08:32:32;12.10;;;7.40;;
44110;SDS011;29774;52.664;5.074;2023-04-23T08:34:58;7.43;;;6.32;;
44110;SDS011;29774;52.664;5.074;2023-04-23T08:37:23;8.88;;;5.93;;
44110;SDS011;29774;52.664;5.074;2023-04-23T08:39:49;6.90;;;5.93;;
44110;SDS011;29774;52.664;5.074;2023-04-23T08:45:07;7.22;;;5.43;;
44110;SDS011;29774;52.664;5.074;2023-04-23T08:47:33;6.22;;;4.97;;
44110;SDS011;29774;52.664;5.074;2023-04-23T08:50:00;10.88;;;7.97;;
44110;SDS011;29774;52.664;5.074;2023-04-23T08:52:28;8.32;;;5.50;;
44110;SDS011;29774;52.664;5.074;2023-04-23T08:54:59;10.82;;;6.88;;
44110;SDS011;29774;52.664;5.074;2023-04-23T08:57:25;8.50;;;5.25;;
44110;SDS011;29774;52.664;5.074;2023-04-23T08:59:51;7.05;;;4.53;;
44110;SDS011;29774;52.664;5.074;2023-04-23T09:02:17;6.97;;;5.30;;
44110;SDS011;29774;52.664;5.074;2023-04-23T09:04:44;4.55;;;3.83;;
44110;SDS011;29774;52.664;5.074;2023-04-23T09:07:10;4.53;;;3.55;;
44110;SDS011;29774;52.664;5.074;2023-04-23T09:09:37;6.85;;;4.97;;
44110;SDS011;29774;52.664;5.074;2023-04-23T09:12:03;5.75;;;4.28;;
44110;SDS011;29774;52.664;5.074;2023-04-23T09:14:31;7.45;;;4.50;;
44110;SDS011;29774;52.664;5.074;2023-04-23T09:16:57;8.82;;;6.13;;
44110;SDS011;29774;52.664;5.074;2023-04-23T09:19:24;4.55;;;3.63;;
44110;SDS011;29774;52.664;5.074;2023-04-23T09:21:51;8.45;;;5.80;;
44110;SDS011;29774;52.664;5.074;2023-04-23T09:24:17;7.78;;;5.70;;
44110;SDS011;29774;52.664;5.074;2023-04-23T09:26:46;9.60;;;6.28;;
44110;SDS011;29774;52.664;5.074;2023-04-23T09:29:20;11.05;;;6.53;;
44110;SDS011;29774;52.664;5.074;2023-04-23T09:31:54;14.13;;;7.50;;
44110;SDS011;29774;52.664;5.074;2023-04-23T09:34:26;9.30;;;6.30;;
44110;SDS011;29774;52.664;5.074;2023-04-23T09:36:52;9.52;;;7.30;;
44110;SDS011;29774;52.664;5.074;2023-04-23T09:39:18;14.75;;;6.43;;
44110;SDS011;29774;52.664;5.074;2023-04-23T09:41:47;8.90;;;7.43;;
44110;SDS011;29774;52.664;5.074;2023-04-23T09:44:19;10.68;;;6.10;;
44110;SDS011;29774;52.664;5.074;2023-04-23T09:46:48;11.32;;;7.15;;
44110;SDS011;29774;52.664;5.074;2023-04-23T09:49:14;14.40;;;8.15;;
44110;SDS011;29774;52.664;5.074;2023-04-23T09:51:44;12.13;;;6.20;;
44110;SDS011;29774;52.664;5.074;2023-04-23T09:54:12;9.95;;;6.68;;
44110;SDS011;29774;52.664;5.074;2023-04-23T09:56:38;9.63;;;5.50;;
44110;SDS011;29774;52.664;5.074;2023-04-23T09:59:26;6.63;;;4.55;;
44110;SDS011;29774;52.664;5.074;2023-04-23T10:01:52;14.13;;;5.78;;
44110;SDS011;29774;52.664;5.074;2023-04-23T10:04:18;11.52;;;5.80;;
44110;SDS011;29774;52.664;5.074;2023-04-23T10:06:47;9.88;;;6.15;;
44110;SDS011;29774;52.664;5.074;2023-04-23T10:52:39;9.60;;;4.45;;
44110;SDS011;29774;52.664;5.074;2023-04-23T10:55:15;10.68;;;4.22;;
44110;SDS011;29774;52.664;5.074;2023-04-23T11:00:41;7.78;;;3.42;;
44110;SDS011;29774;52.664;5.074;2023-04-23T11:06:01;5.15;;;2.72;;
44110;SDS011;29774;52.664;5.074;2023-04-23T11:08:28;9.45;;;3.22;;
44110;SDS011;29774;52.664;5.074;2023-04-23T11:10:59;6.53;;;3.30;;
44110;SDS011;29774;52.664;5.074;2023-04-23T11:13:26;9.10;;;3.67;;
44110;SDS011;29774;52.664;5.074;2023-04-23T11:18:57;7.60;;;2.80;;
44110;SDS011;29774;52.664;5.074;2023-04-23T11:24:28;8.30;;;2.97;;
44110;SDS011;29774;52.664;5.074;2023-04-23T11:27:15;8.57;;;2.88;;
44110;SDS011;29774;52.664;5.074;2023-04-23T11:29:43;4.82;;;2.40;;
44110;SDS011;29774;52.664;5.074;2023-04-23T11:32:10;2.20;;;2.00;;
44110;SDS011;29774;52.664;5.074;2023-04-23T11:34:41;7.47;;;3.28;;
44110;SDS011;29774;52.664;5.074;2023-04-23T11:37:12;5.88;;;2.63;;
44110;SDS011;29774;52.664;5.074;2023-04-23T11:39:39;7.10;;;2.78;;
44110;SDS011;29774;52.664;5.074;2023-04-23T11:42:09;3.20;;;2.13;;
44110;SDS011;29774;52.664;5.074;2023-04-23T11:44:36;4.88;;;2.63;;
44110;SDS011;29774;52.664;5.074;2023-04-23T11:47:02;5.45;;;2.10;;
44110;SDS011;29774;52.664;5.074;2023-04-23T11:49:28;4.75;;;2.25;;
44110;SDS011;29774;52.664;5.074;2023-04-23T11:51:53;6.38;;;2.50;;
44110;SDS011;29774;52.664;5.074;2023-04-23T11:54:23;7.40;;;2.55;;
44110;SDS011;29774;52.664;5.074;2023-04-23T11:56:51;6.88;;;2.28;;
44110;SDS011;29774;52.664;5.074;2023-04-23T11:59:17;8.70;;;2.67;;
44110;SDS011;29774;52.664;5.074;2023-04-23T12:01:44;7.93;;;2.83;;
44110;SDS011;29774;52.664;5.074;2023-04-23T12:06:39;6.82;;;1.95;;
44110;SDS011;29774;52.664;5.074;2023-04-23T12:09:06;11.95;;;3.33;;
44110;SDS011;29774;52.664;5.074;2023-04-23T12:11:34;6.00;;;1.98;;
44110;SDS011;29774;52.664;5.074;2023-04-23T12:14:00;6.25;;;2.15;;
44110;SDS011;29774;52.664;5.074;2023-04-23T12:16:35;6.65;;;2.30;;
44110;SDS011;29774;52.664;5.074;2023-04-23T12:19:15;4.03;;;1.95;;
44110;SDS011;29774;52.664;5.074;2023-04-23T12:21:46;5.32;;;2.08;;
44110;SDS011;29774;52.664;5.074;2023-04-23T12:24:19;5.07;;;2.03;;
44110;SDS011;29774;52.664;5.074;2023-04-23T12:26:50;5.22;;;2.10;;
44110;SDS011;29774;52.664;5.074;2023-04-23T12:29:18;5.45;;;2.08;;
44110;SDS011;29774;52.664;5.074;2023-04-23T12:31:45;4.43;;;1.80;;
44110;SDS011;29774;52.664;5.074;2023-04-23T12:34:12;3.90;;;1.45;;
44110;SDS011;29774;52.664;5.074;2023-04-23T12:36:42;6.28;;;2.13;;
44110;SDS011;29774;52.664;5.074;2023-04-23T12:41:58;11.55;;;2.70;;
44110;SDS011;29774;52.664;5.074;2023-04-23T12:44:36;5.85;;;1.70;;
44110;SDS011;29774;52.664;5.074;2023-04-23T12:47:06;2.97;;;1.80;;
44110;SDS011;29774;52.664;5.074;2023-04-23T12:49:33;8.32;;;3.20;;
44110;SDS011;29774;52.664;5.074;2023-04-23T12:52:00;6.20;;;2.10;;
44110;SDS011;29774;52.664;5.074;2023-04-23T12:54:28;7.15;;;1.98;;
44110;SDS011;29774;52.664;5.074;2023-04-23T12:56:58;3.85;;;1.80;;
44110;SDS011;29774;52.664;5.074;2023-04-23T12:59:26;6.68;;;2.22;;
44110;SDS011;29774;52.664;5.074;2023-04-23T13:01:52;3.38;;;1.30;;
44110;SDS011;29774;52.664;5.074;2023-04-23T13:04:18;3.25;;;1.17;;
44110;SDS011;29774;52.664;5.074;2023-04-23T13:06:43;3.15;;;1.48;;
44110;SDS011;29774;52.664;5.074;2023-04-23T13:09:09;5.07;;;1.60;;
44110;SDS011;29774;52.664;5.074;2023-04-23T13:11:38;2.90;;;1.20;;
44110;SDS011;29774;52.664;5.074;2023-04-23T13:14:05;3.47;;;1.25;;
44110;SDS011;29774;52.664;5.074;2023-04-23T13:16:31;8.05;;;1.58;;
44110;SDS011;29774;52.664;5.074;2023-04-23T13:18:58;3.38;;;1.92;;
44110;SDS011;29774;52.664;5.074;2023-04-23T13:21:24;3.25;;;1.40;;
44110;SDS011;29774;52.664;5.074;2023-04-23T13:23:50;4.28;;;1.38;;
44110;SDS011;29774;52.664;5.074;2023-04-23T13:26:15;1.98;;;1.13;;
44110;SDS011;29774;52.664;5.074;2023-04-23T13:28:41;5.65;;;1.50;;
44110;SDS011;29774;52.664;5.074;2023-04-23T13:31:07;4.65;;;1.75;;
44110;SDS011;29774;52.664;5.074;2023-04-23T13:33:35;2.53;;;1.10;;
44110;SDS011;29774;52.664;5.074;2023-04-23T13:36:01;5.28;;;1.50;;
44110;SDS011;29774;52.664;5.074;2023-04-23T13:38:28;4.88;;;1.50;;
44110;SDS011;29774;52.664;5.074;2023-04-23T13:40:53;4.22;;;1.75;;
44110;SDS011;29774;52.664;5.074;2023-04-23T13:43:19;3.78;;;1.48;;
44110;SDS011;29774;52.664;5.074;2023-04-23T13:45:45;7.57;;;1.75;;
44110;SDS011;29774;52.664;5.074;2023-04-23T13:48:11;4.53;;;1.55;;
44110;SDS011;29774;52.664;5.074;2023-04-23T13:50:39;3.72;;;1.58;;
44110;SDS011;29774;52.664;5.074;2023-04-23T13:53:05;3.72;;;1.42;;
44110;SDS011;29774;52.664;5.074;2023-04-23T13:55:30;3.17;;;1.50;;
44110;SDS011;29774;52.664;5.074;2023-04-23T13:57:56;5.72;;;1.60;;
44110;SDS011;29774;52.664;5.074;2023-04-23T14:00:26;1.98;;;1.20;;
44110;SDS011;29774;52.664;5.074;2023-04-23T14:02:53;6.32;;;1.52;;
44110;SDS011;29774;52.664;5.074;2023-04-23T14:05:19;6.45;;;1.80;;
44110;SDS011;29774;52.664;5.074;2023-04-23T14:07:45;2.38;;;1.17;;
44110;SDS011;29774;52.664;5.074;2023-04-23T14:10:11;3.67;;;1.33;;
44110;SDS011;29774;52.664;5.074;2023-04-23T14:12:37;6.53;;;1.30;;
44110;SDS011;29774;52.664;5.074;2023-04-23T14:15:06;5.25;;;1.58;;
44110;SDS011;29774;52.664;5.074;2023-04-23T14:17:32;3.80;;;1.30;;
44110;SDS011;29774;52.664;5.074;2023-04-23T14:19:58;1.95;;;1.23;;
44110;SDS011;29774;52.664;5.074;2023-04-23T14:22:24;2.90;;;1.40;;
44110;SDS011;29774;52.664;5.074;2023-04-23T14:24:50;4.70;;;1.30;;
44110;SDS011;29774;52.664;5.074;2023-04-23T14:27:23;3.50;;;2.10;;
44110;SDS011;29774;52.664;5.074;2023-04-23T14:29:51;1.75;;;1.10;;
44110;SDS011;29774;52.664;5.074;2023-04-23T14:32:22;6.10;;;1.55;;
44110;SDS011;29774;52.664;5.074;2023-04-23T14:34:48;3.63;;;1.27;;
44110;SDS011;29774;52.664;5.074;2023-04-23T14:37:14;2.72;;;1.35;;
44110;SDS011;29774;52.664;5.074;2023-04-23T14:39:41;5.68;;;1.63;;
44110;SDS011;29774;52.664;5.074;2023-04-23T14:42:07;3.28;;;1.92;;
44110;SDS011;29774;52.664;5.074;2023-04-23T14:44:32;2.05;;;1.30;;
44110;SDS011;29774;52.664;5.074;2023-04-23T14:46:58;2.55;;;1.15;;
44110;SDS011;29774;52.664;5.074;2023-04-23T14:49:24;4.85;;;2.22;;
44110;SDS011;29774;52.664;5.074;2023-04-23T14:51:50;4.20;;;1.70;;
44110;SDS011;29774;52.664;5.074;2023-04-23T14:54:21;4.43;;;1.80;;
44110;SDS011;29774;52.664;5.074;2023-04-23T14:56:47;2.53;;;2.10;;
44110;SDS011;29774;52.664;5.074;2023-04-23T14:59:12;4.18;;;1.90;;
44110;SDS011;29774;52.664;5.074;2023-04-23T15:01:39;3.30;;;1.65;;
44110;SDS011;29774;52.664;5.074;2023-04-23T15:04:04;5.65;;;2.13;;
44110;SDS011;29774;52.664;5.074;2023-04-23T15:06:30;5.05;;;1.80;;
44110;SDS011;29774;52.664;5.074;2023-04-23T15:08:56;4.20;;;2.58;;
44110;SDS011;29774;52.664;5.074;2023-04-23T15:11:21;3.78;;;1.73;;
44110;SDS011;29774;52.664;5.074;2023-04-23T15:14:06;3.33;;;1.65;;
44110;SDS011;29774;52.664;5.074;2023-04-23T15:16:42;4.05;;;1.88;;
44110;SDS011;29774;52.664;5.074;2023-04-23T15:19:07;3.65;;;1.83;;
44110;SDS011;29774;52.664;5.074;2023-04-23T15:21:36;3.92;;;1.85;;
44110;SDS011;29774;52.664;5.074;2023-04-23T15:24:02;3.25;;;1.70;;
44110;SDS011;29774;52.664;5.074;2023-04-23T15:26:28;8.00;;;1.90;;
44110;SDS011;29774;52.664;5.074;2023-04-23T15:28:56;3.50;;;1.50;;
44110;SDS011;29774;52.664;5.074;2023-04-23T15:31:22;3.40;;;1.80;;
44110;SDS011;29774;52.664;5.074;2023-04-23T15:33:47;3.90;;;1.70;;